createdAt,value
2023-01-04T00:00:00.495Z,9.6
2023-01-04T00:01:03.503Z,9.6
2023-01-04T00:02:00.470Z,9.6
2023-01-04T00:03:00.724Z,9.6
2023-01-04T00:04:00.627Z,9.6
2023-01-04T00:05:00.594Z,9.5
2023-01-04T00:06:01.681Z,9.5
2023-01-04T00:07:00.402Z,9.5
2023-01-04T00:08:00.439Z,9.5
2023-01-04T00:09:00.489Z,9.5
2023-01-04T00:10:00.472Z,9.5
2023-01-04T00:11:01.587Z,9.5
2023-01-04T00:12:00.574Z,9.5
2023-01-04T00:13:00.478Z,9.5
2023-01-04T00:14:00.454Z,9.5
2023-01-04T00:15:00.455Z,9.5
2023-01-04T00:16:08.011Z,9.5
2023-01-04T00:17:00.473Z,9.5
2023-01-04T00:18:00.646Z,9.5
2023-01-04T00:19:00.420Z,9.5
2023-01-04T00:20:00.552Z,9.5
2023-01-04T00:21:10.614Z,9.5
2023-01-04T00:22:00.455Z,9.5
2023-01-04T00:23:00.733Z,9.5
2023-01-04T00:24:00.479Z,9.5
2023-01-04T00:25:00.572Z,9.2
2023-01-04T00:26:00.447Z,9.2
2023-01-04T00:27:00.537Z,9.2
2023-01-04T00:28:00.454Z,9.2
2023-01-04T00:29:02.128Z,9.2
2023-01-04T00:30:00.424Z,9.2
2023-01-04T00:31:02.101Z,9.2
2023-01-04T00:32:00.433Z,9.2
2023-01-04T00:33:00.455Z,9.2
2023-01-04T00:34:01.275Z,9.2
2023-01-04T00:35:00.459Z,7.6
2023-01-04T00:36:02.687Z,7.6
2023-01-04T00:37:00.591Z,7.6
2023-01-04T00:38:01.009Z,7.6
2023-01-04T00:39:01.103Z,7.6
2023-01-04T00:40:00.546Z,7.6
2023-01-04T00:41:01.121Z,7.6
2023-01-04T00:42:01.536Z,7.6
2023-01-04T00:43:00.478Z,7.6
2023-01-04T00:44:00.567Z,7.6
2023-01-04T00:45:00.587Z,7.3
2023-01-04T00:46:00.764Z,7.3
2023-01-04T00:47:01.398Z,7.3
2023-01-04T00:48:00.438Z,7.3
2023-01-04T00:49:01.014Z,7.3
2023-01-04T00:50:00.465Z,7.3
2023-01-04T00:51:00.433Z,7.3
2023-01-04T00:52:00.473Z,7.3
2023-01-04T00:53:00.435Z,7.3
2023-01-04T00:54:01.419Z,7.3
2023-01-04T00:55:00.408Z,7.4
2023-01-04T00:56:00.922Z,7.4
2023-01-04T00:57:00.713Z,7.4
2023-01-04T00:58:00.438Z,7.4
2023-01-04T00:59:01.213Z,7.4
2023-01-04T01:00:00.431Z,7.4
2023-01-04T01:01:05.033Z,7.4
2023-01-04T01:02:00.627Z,7.4
2023-01-04T01:03:01.131Z,7.4
2023-01-04T01:04:01.759Z,7.4
2023-01-04T01:05:00.452Z,7.5
2023-01-04T01:06:01.413Z,7.5
2023-01-04T01:07:00.669Z,7.5
2023-01-04T01:08:00.910Z,7.5
2023-01-04T01:09:00.849Z,7.5
2023-01-04T01:10:00.442Z,7.5
2023-01-04T01:11:02.607Z,7.5
2023-01-04T01:12:00.456Z,7.5
2023-01-04T01:13:00.510Z,7.5
2023-01-04T01:14:00.462Z,7.5
2023-01-04T01:15:00.842Z,6.4
2023-01-04T01:16:04.877Z,6.4
2023-01-04T01:17:00.528Z,6.4
2023-01-04T01:18:00.608Z,6.4
2023-01-04T01:19:00.430Z,6.4
2023-01-04T01:20:00.701Z,6.4
2023-01-04T01:21:03.594Z,6.4
2023-01-04T01:22:00.449Z,6.4
2023-01-04T01:23:00.520Z,6.4
2023-01-04T01:24:00.471Z,6.4
2023-01-04T01:25:00.405Z,7.3
2023-01-04T01:26:01.022Z,7.3
2023-01-04T01:27:00.486Z,7.3
2023-01-04T01:28:00.454Z,7.3
2023-01-04T01:29:00.710Z,7.3
2023-01-04T01:30:00.449Z,7.3
2023-01-04T01:31:08.964Z,7.3
2023-01-04T01:32:00.667Z,7.3
2023-01-04T01:33:00.500Z,7.3
2023-01-04T01:34:00.746Z,7.3
2023-01-04T01:35:00.449Z,7.8
2023-01-04T01:36:00.893Z,7.8
2023-01-04T01:37:00.516Z,7.8
2023-01-04T01:38:01.055Z,7.8
2023-01-04T01:39:00.440Z,7.8
2023-01-04T01:40:00.647Z,7.8
2023-01-04T01:41:00.493Z,7.8
2023-01-04T01:42:00.400Z,7.8
2023-01-04T01:43:00.441Z,7.8
2023-01-04T01:44:01.856Z,7.8
2023-01-04T01:45:02.064Z,8.0
2023-01-04T01:46:00.622Z,8.0
2023-01-04T01:47:01.020Z,8.0
2023-01-04T01:48:06.124Z,8.0
2023-01-04T01:49:03.243Z,8.0
2023-01-04T01:50:01.174Z,8.0
2023-01-04T01:51:01.650Z,8.0
2023-01-04T01:52:03.182Z,8.0
2023-01-04T01:53:00.586Z,8.0
2023-01-04T01:54:03.604Z,8.0
2023-01-04T01:55:03.776Z,6.8
2023-01-04T01:56:01.447Z,6.8
2023-01-04T01:57:02.897Z,6.8
2023-01-04T01:58:01.232Z,6.8
2023-01-04T01:59:00.792Z,6.8
2023-01-04T02:00:02.853Z,6.8
2023-01-04T02:01:00.811Z,6.8
2023-01-04T02:02:00.810Z,6.8
2023-01-04T02:03:10.667Z,6.8
2023-01-04T02:04:01.789Z,6.8
2023-01-04T02:05:01.340Z,6.7
2023-01-04T02:06:00.954Z,6.7
2023-01-04T02:07:01.563Z,6.7
2023-01-04T02:08:01.601Z,6.7
2023-01-04T02:09:01.098Z,6.7
2023-01-04T02:10:00.491Z,6.7
2023-01-04T02:11:00.468Z,6.7
2023-01-04T02:12:00.470Z,6.7
2023-01-04T02:13:04.232Z,6.7
2023-01-04T02:14:01.829Z,6.7
2023-01-04T02:15:00.620Z,8.1
2023-01-04T02:16:08.983Z,8.1
2023-01-04T02:17:10.276Z,8.1
2023-01-04T02:18:01.480Z,8.1
2023-01-04T02:19:06.824Z,8.1
2023-01-04T02:20:10.341Z,8.1
2023-01-04T02:21:05.616Z,8.1
2023-01-04T02:22:10.286Z,8.1
2023-01-04T02:23:07.838Z,8.1
2023-01-04T02:24:09.333Z,8.1
2023-01-04T02:25:10.321Z,8.1
2023-01-04T02:26:10.317Z,8.1
2023-01-04T02:27:10.272Z,8.1
2023-01-04T02:28:10.308Z,8.1
2023-01-04T02:29:10.376Z,8.1
2023-01-04T02:30:10.306Z,8.1
2023-01-04T02:31:10.340Z,8.1
2023-01-04T02:32:03.637Z,8.1
2023-01-04T02:33:07.053Z,8.1
2023-01-04T02:34:00.425Z,8.1
2023-01-04T02:35:00.656Z,8.3
2023-01-04T02:36:01.431Z,8.3
2023-01-04T02:37:01.481Z,8.3
2023-01-04T02:38:07.833Z,8.3
2023-01-04T02:39:08.075Z,8.3
2023-01-04T02:40:00.452Z,8.3
2023-01-04T02:41:10.293Z,8.3
2023-01-04T02:42:09.231Z,8.3
2023-01-04T02:43:04.672Z,8.3
2023-01-04T02:44:03.813Z,8.3
2023-01-04T02:45:03.098Z,8.8
2023-01-04T02:46:04.399Z,8.8
2023-01-04T02:47:03.789Z,8.8
2023-01-04T02:48:00.916Z,8.8
2023-01-04T02:49:01.298Z,8.8
2023-01-04T02:50:04.658Z,8.8
2023-01-04T02:51:00.665Z,8.8
2023-01-04T02:52:00.448Z,8.8
2023-01-04T02:53:00.537Z,8.8
2023-01-04T02:54:03.765Z,8.8
2023-01-04T02:55:03.514Z,9.3
2023-01-04T02:56:10.326Z,9.3
2023-01-04T02:57:07.852Z,9.3
2023-01-04T02:58:06.609Z,9.3
2023-01-04T02:59:01.486Z,9.3
2023-01-04T03:00:00.409Z,9.3
2023-01-04T03:01:07.928Z,9.3
2023-01-04T03:02:00.616Z,9.3
2023-01-04T03:03:08.651Z,9.3
2023-01-04T03:04:10.371Z,9.3
2023-01-04T03:05:03.826Z,8.4
2023-01-04T03:06:01.515Z,8.4
2023-01-04T03:07:07.057Z,8.4
2023-01-04T03:08:07.657Z,8.4
2023-01-04T03:09:07.880Z,8.4
2023-01-04T03:10:07.388Z,8.4
2023-01-04T03:11:03.589Z,8.4
2023-01-04T03:12:03.889Z,8.4
2023-01-04T03:13:05.495Z,8.4
2023-01-04T03:14:32.319Z,8.4
2023-01-04T03:15:07.142Z,8.3
2023-01-04T03:16:03.665Z,8.3
2023-01-04T03:17:04.253Z,8.3
2023-01-04T03:18:10.275Z,8.3
2023-01-04T03:19:01.321Z,8.3
2023-01-04T03:20:00.935Z,8.3
2023-01-04T03:21:02.421Z,8.3
2023-01-04T03:22:01.661Z,8.3
2023-01-04T03:23:04.630Z,8.3
2023-01-04T03:24:01.481Z,8.3
2023-01-04T03:25:00.813Z,8.5
2023-01-04T03:26:09.825Z,8.5
2023-01-04T03:27:03.842Z,8.5
2023-01-04T03:28:00.514Z,8.5
2023-01-04T03:29:06.683Z,8.5
2023-01-04T03:30:03.429Z,8.5
2023-01-04T03:31:03.218Z,8.5
2023-01-04T03:32:05.768Z,8.5
2023-01-04T03:33:03.012Z,8.5
2023-01-04T03:34:00.504Z,8.5
2023-01-04T03:35:00.470Z,7.2
2023-01-04T03:36:03.818Z,7.2
2023-01-04T03:37:01.481Z,7.2
2023-01-04T03:38:04.384Z,7.2
2023-01-04T03:39:05.589Z,7.2
2023-01-04T03:40:10.337Z,7.2
2023-01-04T03:41:10.319Z,7.2
2023-01-04T03:42:09.922Z,7.2
2023-01-04T03:43:10.327Z,7.2
2023-01-04T03:44:07.225Z,7.2
2023-01-04T03:45:10.703Z,6.5
2023-01-04T03:46:04.759Z,6.5
2023-01-04T03:47:07.779Z,6.5
2023-01-04T03:48:01.475Z,6.5
2023-01-04T03:49:10.337Z,6.5
2023-01-04T03:50:09.046Z,6.5
2023-01-04T03:51:07.609Z,6.5
2023-01-04T03:52:02.479Z,6.5
2023-01-04T03:53:01.699Z,6.5
2023-01-04T03:54:07.579Z,6.5
2023-01-04T03:55:01.343Z,6.5
2023-01-04T03:56:01.430Z,6.5
2023-01-04T03:57:00.580Z,6.5
2023-01-04T03:58:00.578Z,6.5
2023-01-04T03:59:00.983Z,6.5
2023-01-04T04:00:04.110Z,6.5
2023-01-04T04:01:01.921Z,6.5
2023-01-04T04:02:01.671Z,6.5
2023-01-04T04:03:03.859Z,6.5
2023-01-04T04:04:00.538Z,6.5
2023-01-04T04:05:00.734Z,6.5
2023-01-04T04:06:00.485Z,8.1
2023-01-04T04:07:00.747Z,8.1
2023-01-04T04:08:00.490Z,8.1
2023-01-04T04:09:00.484Z,8.1
2023-01-04T04:10:00.432Z,8.1
2023-01-04T04:11:02.178Z,8.1
2023-01-04T04:12:00.634Z,8.1
2023-01-04T04:13:00.785Z,8.1
2023-01-04T04:14:00.462Z,8.1
2023-01-04T04:15:00.461Z,8.1
2023-01-04T04:16:00.502Z,8.2
2023-01-04T04:17:00.552Z,8.2
2023-01-04T04:18:00.447Z,8.2
2023-01-04T04:19:06.347Z,8.2
2023-01-04T04:20:00.492Z,8.2
2023-01-04T04:21:00.438Z,8.2
2023-01-04T04:22:00.452Z,8.2
2023-01-04T04:23:00.639Z,8.2
2023-01-04T04:24:00.727Z,8.2
2023-01-04T04:25:00.504Z,8.2
2023-01-04T04:26:00.443Z,7.6
2023-01-04T04:27:00.529Z,7.6
2023-01-04T04:28:00.463Z,7.6
2023-01-04T04:29:00.423Z,7.6
2023-01-04T04:30:00.543Z,7.6
2023-01-04T04:31:00.726Z,7.6
2023-01-04T04:32:00.508Z,7.6
2023-01-04T04:33:00.469Z,7.6
2023-01-04T04:34:00.463Z,7.6
2023-01-04T04:35:00.730Z,7.6
2023-01-04T04:36:00.437Z,7.2
2023-01-04T04:37:00.440Z,7.2
2023-01-04T04:38:00.649Z,7.2
2023-01-04T04:39:00.528Z,7.2
2023-01-04T04:40:00.741Z,7.2
2023-01-04T04:41:05.732Z,7.2
2023-01-04T04:42:00.493Z,7.2
2023-01-04T04:43:00.480Z,7.2
2023-01-04T04:44:00.493Z,7.2
2023-01-04T04:45:00.478Z,7.2
2023-01-04T04:46:01.079Z,7.1
2023-01-04T04:47:00.524Z,7.1
2023-01-04T04:48:00.496Z,7.1
2023-01-04T04:49:00.764Z,7.1
2023-01-04T04:50:00.444Z,7.1
2023-01-04T04:51:00.549Z,7.1
2023-01-04T04:52:00.477Z,7.1
2023-01-04T04:53:00.402Z,7.1
2023-01-04T04:54:00.544Z,7.1
2023-01-04T04:55:00.426Z,7.1
2023-01-04T04:56:00.440Z,7.4
2023-01-04T04:57:00.669Z,7.4
2023-01-04T04:58:00.463Z,7.4
2023-01-04T04:59:00.507Z,7.4
2023-01-04T05:00:00.520Z,7.4
2023-01-04T05:01:00.644Z,7.4
2023-01-04T05:02:00.692Z,7.4
2023-01-04T05:03:01.075Z,7.4
2023-01-04T05:04:00.466Z,7.4
2023-01-04T05:05:00.463Z,7.4
2023-01-04T05:06:00.627Z,7.6
2023-01-04T05:07:00.502Z,7.6
2023-01-04T05:08:00.713Z,7.6
2023-01-04T05:09:00.720Z,7.6
2023-01-04T05:10:00.648Z,7.6
2023-01-04T05:11:03.869Z,7.6
2023-01-04T05:12:00.429Z,7.6
2023-01-04T05:13:00.463Z,7.6
2023-01-04T05:14:00.453Z,7.6
2023-01-04T05:15:00.479Z,7.6
2023-01-04T05:16:01.090Z,6.9
2023-01-04T05:17:00.500Z,6.9
2023-01-04T05:18:00.942Z,6.9
2023-01-04T05:19:00.964Z,6.9
2023-01-04T05:20:00.461Z,6.9
2023-01-04T05:21:00.473Z,6.9
2023-01-04T05:22:00.440Z,6.9
2023-01-04T05:23:00.787Z,6.9
2023-01-04T05:24:00.520Z,6.9
2023-01-04T05:25:00.475Z,6.9
2023-01-04T05:26:01.050Z,6.8
2023-01-04T05:27:00.449Z,6.8
2023-01-04T05:28:00.717Z,6.8
2023-01-04T05:29:00.455Z,6.8
2023-01-04T05:30:01.064Z,6.8
2023-01-04T05:31:00.418Z,6.8
2023-01-04T05:32:00.552Z,6.8
2023-01-04T05:33:00.952Z,6.8
2023-01-04T05:34:00.433Z,6.8
2023-01-04T05:35:00.526Z,6.8
2023-01-04T05:36:01.509Z,7.7
2023-01-04T05:37:00.489Z,7.7
2023-01-04T05:38:00.490Z,7.7
2023-01-04T05:39:00.462Z,7.7
2023-01-04T05:40:00.443Z,7.7
2023-01-04T05:41:00.706Z,7.7
2023-01-04T05:42:00.528Z,7.7
2023-01-04T05:43:00.669Z,7.7
2023-01-04T05:44:00.457Z,7.7
2023-01-04T05:45:00.441Z,7.7
2023-01-04T05:46:00.496Z,7.3
2023-01-04T05:47:00.457Z,7.3
2023-01-04T05:48:00.914Z,7.3
2023-01-04T05:49:00.519Z,7.3
2023-01-04T05:50:00.486Z,7.3
2023-01-04T05:51:00.413Z,7.3
2023-01-04T05:52:00.635Z,7.3
2023-01-04T05:53:00.472Z,7.3
2023-01-04T05:54:00.488Z,7.3
2023-01-04T05:55:00.654Z,7.3
2023-01-04T05:56:00.457Z,8.1
2023-01-04T05:57:00.484Z,8.1
2023-01-04T05:58:00.464Z,8.1
2023-01-04T05:59:00.437Z,8.1
2023-01-04T06:00:00.504Z,8.1
2023-01-04T06:01:00.476Z,8.1
2023-01-04T06:02:00.654Z,8.1
2023-01-04T06:03:00.724Z,8.1
2023-01-04T06:04:00.499Z,8.1
2023-01-04T06:05:00.460Z,8.1
2023-01-04T06:06:01.479Z,9.2
2023-01-04T06:07:00.455Z,9.2
2023-01-04T06:08:00.448Z,9.2
2023-01-04T06:09:00.410Z,9.2
2023-01-04T06:10:00.457Z,9.2
2023-01-04T06:11:00.443Z,9.2
2023-01-04T06:12:00.548Z,9.2
2023-01-04T06:13:00.488Z,9.2
2023-01-04T06:14:00.479Z,9.2
2023-01-04T06:15:00.508Z,9.2
2023-01-04T06:16:00.463Z,9.0
2023-01-04T06:17:00.558Z,9.0
2023-01-04T06:18:00.455Z,9.0
2023-01-04T06:19:00.538Z,9.0
2023-01-04T06:20:00.760Z,9.0
2023-01-04T06:21:00.461Z,9.0
2023-01-04T06:22:00.652Z,9.0
2023-01-04T06:23:00.411Z,9.0
2023-01-04T06:24:00.447Z,9.0
2023-01-04T06:25:00.668Z,9.0
2023-01-04T06:26:00.458Z,11.2
2023-01-04T06:27:01.269Z,11.2
2023-01-04T06:28:00.417Z,11.2
2023-01-04T06:29:00.580Z,11.2
2023-01-04T06:30:00.442Z,11.2
2023-01-04T06:31:04.735Z,11.2
2023-01-04T06:32:00.429Z,11.2
2023-01-04T06:33:00.473Z,11.2
2023-01-04T06:34:00.458Z,11.2
2023-01-04T06:35:00.449Z,11.2
2023-01-04T06:36:00.555Z,10.0
2023-01-04T06:37:00.467Z,10.0
2023-01-04T06:38:01.363Z,10.0
2023-01-04T06:39:00.634Z,10.0
2023-01-04T06:40:00.529Z,10.0
2023-01-04T06:41:00.461Z,10.0
2023-01-04T06:42:06.308Z,10.0
2023-01-04T06:43:00.445Z,10.0
2023-01-04T06:44:00.468Z,10.0
2023-01-04T06:45:00.544Z,10.0
2023-01-04T06:46:00.520Z,8.6
2023-01-04T06:47:00.667Z,8.6
2023-01-04T06:48:04.413Z,8.6
2023-01-04T06:49:00.533Z,8.6
2023-01-04T06:50:00.474Z,8.6
2023-01-04T06:51:00.513Z,8.6
2023-01-04T06:52:00.424Z,8.6
2023-01-04T06:53:00.553Z,8.6
2023-01-04T06:54:00.437Z,8.6
2023-01-04T06:55:00.480Z,8.6
2023-01-04T06:56:00.565Z,8.5
2023-01-04T06:57:00.439Z,8.5
2023-01-04T06:58:00.749Z,8.5
2023-01-04T06:59:00.452Z,8.5
2023-01-04T07:00:00.499Z,8.5
2023-01-04T07:01:00.671Z,8.5
2023-01-04T07:02:00.559Z,8.5
2023-01-04T07:03:14.300Z,8.5
2023-01-04T07:04:00.474Z,8.5
2023-01-04T07:05:00.811Z,8.5
2023-01-04T07:06:03.178Z,8.6
2023-01-04T07:07:01.018Z,8.6
2023-01-04T07:08:07.618Z,8.6
2023-01-04T07:09:00.522Z,8.6
2023-01-04T07:10:07.099Z,8.6
2023-01-04T07:11:00.800Z,8.6
2023-01-04T07:12:00.695Z,8.6
2023-01-04T07:13:00.511Z,8.6
2023-01-04T07:14:00.454Z,8.6
2023-01-04T07:15:00.435Z,8.6
2023-01-04T07:16:00.558Z,8.6
2023-01-04T07:17:00.626Z,8.6
2023-01-04T07:18:00.643Z,8.6
2023-01-04T07:19:00.468Z,8.6
2023-01-04T07:20:00.640Z,8.6
2023-01-04T07:21:00.456Z,8.6
2023-01-04T07:22:00.458Z,8.6
2023-01-04T07:23:00.466Z,8.6
2023-01-04T07:24:00.507Z,8.6
2023-01-04T07:25:00.474Z,8.6
2023-01-04T07:26:00.929Z,9.0
2023-01-04T07:27:00.928Z,9.0
2023-01-04T07:28:00.770Z,9.0
2023-01-04T07:29:00.439Z,9.0
2023-01-04T07:30:00.592Z,9.0
2023-01-04T07:31:04.799Z,9.0
2023-01-04T07:32:00.861Z,9.0
2023-01-04T07:33:00.491Z,9.0
2023-01-04T07:34:00.449Z,9.0
2023-01-04T07:35:00.577Z,9.0
2023-01-04T07:36:01.515Z,8.1
2023-01-04T07:37:00.436Z,8.1
2023-01-04T07:38:00.597Z,8.1
2023-01-04T07:39:00.448Z,8.1
2023-01-04T07:40:00.497Z,8.1
2023-01-04T07:41:00.531Z,8.1
2023-01-04T07:42:00.655Z,8.1
2023-01-04T07:43:00.486Z,8.1
2023-01-04T07:44:00.640Z,8.1
2023-01-04T07:45:00.444Z,8.1
2023-01-04T07:46:00.565Z,8.8
2023-01-04T07:47:00.692Z,8.8
2023-01-04T07:48:00.455Z,8.8
2023-01-04T07:49:00.779Z,8.8
2023-01-04T07:50:00.590Z,8.8
2023-01-04T07:51:00.423Z,8.8
2023-01-04T07:52:00.431Z,8.8
2023-01-04T07:53:00.774Z,8.8
2023-01-04T07:54:00.423Z,8.8
2023-01-04T07:55:00.433Z,8.8
2023-01-04T07:56:00.594Z,9.4
2023-01-04T07:57:00.435Z,9.4
2023-01-04T07:58:00.475Z,9.4
2023-01-04T07:59:00.499Z,9.4
2023-01-04T08:00:00.472Z,9.4
2023-01-04T08:01:10.521Z,9.4
2023-01-04T08:02:00.569Z,9.4
2023-01-04T08:03:00.672Z,9.4
2023-01-04T08:04:00.772Z,9.4
2023-01-04T08:05:00.684Z,9.4
2023-01-04T08:06:02.363Z,8.9
2023-01-04T08:07:00.466Z,8.9
2023-01-04T08:08:00.561Z,8.9
2023-01-04T08:09:01.040Z,8.9
2023-01-04T08:10:00.434Z,8.9
2023-01-04T08:11:01.228Z,8.9
2023-01-04T08:12:00.436Z,8.9
2023-01-04T08:13:00.524Z,8.9
2023-01-04T08:14:00.471Z,8.9
2023-01-04T08:15:00.600Z,8.9
2023-01-04T08:16:00.936Z,7.9
2023-01-04T08:17:00.442Z,7.9
2023-01-04T08:18:00.423Z,7.9
2023-01-04T08:19:02.091Z,7.9
2023-01-04T08:20:00.481Z,7.9
2023-01-04T08:21:01.203Z,7.9
2023-01-04T08:22:00.445Z,7.9
2023-01-04T08:23:00.434Z,7.9
2023-01-04T08:24:00.871Z,7.9
2023-01-04T08:25:00.532Z,7.9
2023-01-04T08:26:01.497Z,8.0
2023-01-04T08:27:00.418Z,8.0
2023-01-04T08:28:00.427Z,8.0
2023-01-04T08:29:00.436Z,8.0
2023-01-04T08:30:00.496Z,8.0
2023-01-04T08:31:05.952Z,8.0
2023-01-04T08:32:00.620Z,8.0
2023-01-04T08:33:00.496Z,8.0
2023-01-04T08:34:02.182Z,8.0
2023-01-04T08:35:00.468Z,8.0
2023-01-04T08:36:11.254Z,8.0
2023-01-04T08:37:00.439Z,8.0
2023-01-04T08:38:28.354Z,8.0
2023-01-04T08:39:02.435Z,8.0
2023-01-04T08:40:00.530Z,8.0
2023-01-04T08:41:11.370Z,8.0
2023-01-04T08:42:10.794Z,8.0
2023-01-04T08:43:00.482Z,8.0
2023-01-04T08:44:00.436Z,8.0
2023-01-04T08:45:00.464Z,8.0
2023-01-04T08:46:01.083Z,7.9
2023-01-04T08:47:01.003Z,7.9
2023-01-04T08:48:00.442Z,7.9
2023-01-04T08:49:00.508Z,7.9
2023-01-04T08:50:04.871Z,7.9
2023-01-04T08:51:01.338Z,7.9
2023-01-04T08:52:00.447Z,7.9
2023-01-04T08:53:00.453Z,7.9
2023-01-04T08:54:00.486Z,7.9
2023-01-04T08:55:00.437Z,7.9
2023-01-04T08:56:00.754Z,8.2
2023-01-04T08:57:00.517Z,8.2
2023-01-04T08:58:00.592Z,8.2
2023-01-04T08:59:00.589Z,8.2
2023-01-04T09:00:00.519Z,8.2
2023-01-04T09:01:01.195Z,8.2
2023-01-04T09:02:05.128Z,8.2
2023-01-04T09:03:00.659Z,8.2
2023-01-04T09:04:00.757Z,8.2
2023-01-04T09:05:00.579Z,8.2
2023-01-04T09:06:02.860Z,8.2
2023-01-04T09:07:00.465Z,8.2
2023-01-04T09:08:00.535Z,8.2
2023-01-04T09:09:00.611Z,8.2
2023-01-04T09:10:00.571Z,8.2
2023-01-04T09:11:04.764Z,8.2
2023-01-04T09:12:00.461Z,8.2
2023-01-04T09:13:00.417Z,8.2
2023-01-04T09:14:07.331Z,8.2
2023-01-04T09:15:00.451Z,8.2
2023-01-04T09:16:01.608Z,8.1
2023-01-04T09:17:00.439Z,8.1
2023-01-04T09:18:31.927Z,8.1
2023-01-04T09:19:00.552Z,8.1
2023-01-04T09:20:00.633Z,8.1
2023-01-04T09:21:09.351Z,8.1
2023-01-04T09:22:00.635Z,8.1
2023-01-04T09:23:00.437Z,8.1
2023-01-04T09:24:00.487Z,8.1
2023-01-04T09:25:00.569Z,8.1
2023-01-04T09:26:10.362Z,7.7
2023-01-04T09:27:00.517Z,7.7
2023-01-04T09:28:00.443Z,7.7
2023-01-04T09:29:00.474Z,7.7
2023-01-04T09:30:00.458Z,7.7
2023-01-04T09:31:05.341Z,7.7
2023-01-04T09:32:00.772Z,7.7
2023-01-04T09:33:00.435Z,7.7
2023-01-04T09:34:17.364Z,7.7
2023-01-04T09:35:00.440Z,7.7
2023-01-04T09:36:01.292Z,7.4
2023-01-04T09:37:00.530Z,7.4
2023-01-04T09:38:00.611Z,7.4
2023-01-04T09:39:00.460Z,7.4
2023-01-04T09:40:00.499Z,7.4
2023-01-04T09:41:00.393Z,7.4
2023-01-04T09:42:01.184Z,7.4
2023-01-04T09:43:21.170Z,7.4
2023-01-04T09:44:02.110Z,7.4
2023-01-04T09:45:24.852Z,7.4
2023-01-04T09:46:03.084Z,7.0
2023-01-04T09:47:05.124Z,7.0
2023-01-04T09:48:05.195Z,7.0
2023-01-04T09:49:10.311Z,7.0
2023-01-04T09:50:04.842Z,7.0
2023-01-04T09:51:03.611Z,7.0
2023-01-04T09:52:04.856Z,7.0
2023-01-04T09:53:10.317Z,7.0
2023-01-04T09:54:03.361Z,7.0
2023-01-04T09:55:05.088Z,7.0
2023-01-04T09:56:07.849Z,6.6
2023-01-04T09:57:01.445Z,6.6
2023-01-04T09:58:04.228Z,6.6
2023-01-04T09:59:04.782Z,6.6
2023-01-04T10:00:04.488Z,6.6
2023-01-04T10:01:04.267Z,6.6
2023-01-04T10:02:03.915Z,6.6
2023-01-04T10:03:03.904Z,6.6
2023-01-04T10:04:03.895Z,6.6
2023-01-04T10:05:01.283Z,6.6
2023-01-04T10:06:01.262Z,7.0
2023-01-04T10:07:05.002Z,7.0
2023-01-04T10:08:01.123Z,7.0
2023-01-04T10:09:02.651Z,7.0
2023-01-04T10:10:00.537Z,7.0
2023-01-04T10:11:07.950Z,7.0
2023-01-04T10:12:00.508Z,7.0
2023-01-04T10:13:08.634Z,7.0
2023-01-04T10:14:01.466Z,7.0
2023-01-04T10:15:10.332Z,7.0
2023-01-04T10:16:10.332Z,5.6
2023-01-04T10:17:17.732Z,5.6
2023-01-04T10:19:52.228Z,5.6
2023-01-04T10:21:33.868Z,5.6
2023-01-04T10:22:05.228Z,5.6
2023-01-04T10:23:10.388Z,5.6
2023-01-04T10:24:08.743Z,5.6
2023-01-04T10:25:10.305Z,5.6
2023-01-04T10:26:06.710Z,6.4
2023-01-04T10:27:04.964Z,6.4
2023-01-04T10:28:03.784Z,6.4
2023-01-04T10:29:00.428Z,6.4
2023-01-04T10:30:10.410Z,6.4
2023-01-04T10:31:39.830Z,6.4
2023-01-04T10:32:03.808Z,6.4
2023-01-04T10:33:09.975Z,6.4
2023-01-04T10:34:01.449Z,6.4
2023-01-04T10:35:01.613Z,6.4
2023-01-04T10:36:00.696Z,6.4
2023-01-04T10:37:04.177Z,5.8
2023-01-04T10:38:01.530Z,5.8
2023-01-04T10:39:03.808Z,5.8
2023-01-04T10:40:00.508Z,5.8
2023-01-04T10:41:04.400Z,5.8
2023-01-04T10:42:09.859Z,5.8
2023-01-04T10:43:01.502Z,5.8
2023-01-04T10:44:10.620Z,5.8
2023-01-04T10:45:08.654Z,5.8
2023-01-04T10:46:06.777Z,6.0
2023-01-04T10:47:07.413Z,6.0
2023-01-04T10:48:10.313Z,6.0
2023-01-04T10:49:10.299Z,6.0
2023-01-04T10:50:04.197Z,6.0
2023-01-04T10:51:09.380Z,6.0
2023-01-04T10:52:05.383Z,6.0
2023-01-04T10:53:05.177Z,6.0
2023-01-04T10:54:09.907Z,6.0
2023-01-04T10:55:03.865Z,6.0
2023-01-04T10:56:25.143Z,6.0
2023-01-04T10:57:10.410Z,5.2
2023-01-04T10:58:10.287Z,5.2
2023-01-04T10:59:05.688Z,5.2
2023-01-04T11:00:03.888Z,5.2
2023-01-04T11:01:04.176Z,5.2
2023-01-04T11:02:00.575Z,5.2
2023-01-04T11:03:09.233Z,5.2
2023-01-04T11:04:05.095Z,5.2
2023-01-04T11:05:07.843Z,5.2
2023-01-04T11:06:06.315Z,5.2
2023-01-04T11:07:10.321Z,5.2
2023-01-04T11:08:10.360Z,5.2
2023-01-04T11:09:03.015Z,5.2
2023-01-04T11:10:05.733Z,5.2
2023-01-04T11:11:07.273Z,5.2
2023-01-04T11:12:01.537Z,5.2
2023-01-04T11:13:00.740Z,5.2
2023-01-04T11:14:00.643Z,5.2
2023-01-04T11:15:00.587Z,5.2
2023-01-04T11:16:03.113Z,5.2
2023-01-04T11:17:01.917Z,4.2
2023-01-04T11:18:02.013Z,4.2
2023-01-04T11:19:00.765Z,4.2
2023-01-04T11:20:00.649Z,4.2
2023-01-04T11:21:02.952Z,4.2
2023-01-04T11:22:04.840Z,4.2
2023-01-04T11:23:03.616Z,4.2
2023-01-04T11:24:30.451Z,4.2
2023-01-04T11:26:07.038Z,4.2
2023-01-04T11:27:04.387Z,4.3
2023-01-04T11:28:07.799Z,4.3
2023-01-04T11:29:04.864Z,4.3
2023-01-04T11:30:04.792Z,4.3
2023-01-04T11:31:07.859Z,4.3
2023-01-04T11:32:04.378Z,4.3
2023-01-04T11:33:10.294Z,4.3
2023-01-04T11:34:01.428Z,4.3
2023-01-04T11:35:00.454Z,4.3
2023-01-04T11:36:00.457Z,4.3
2023-01-04T11:37:00.505Z,4.5
2023-01-04T11:38:10.346Z,4.5
2023-01-04T11:39:01.165Z,4.5
2023-01-04T11:40:10.356Z,4.5
2023-01-04T11:41:02.714Z,4.5
2023-01-04T11:42:03.628Z,4.5
2023-01-04T11:43:10.310Z,4.5
2023-01-04T11:44:03.327Z,4.5
2023-01-04T11:45:00.435Z,4.5
2023-01-04T11:46:05.695Z,4.5
2023-01-04T11:47:10.366Z,4.7
2023-01-04T11:48:00.542Z,4.7
2023-01-04T11:49:00.555Z,4.7
2023-01-04T11:50:00.482Z,4.7
2023-01-04T11:51:00.986Z,4.7
2023-01-04T11:52:00.476Z,4.7
2023-01-04T11:53:00.693Z,4.7
2023-01-04T11:54:02.891Z,4.7
2023-01-04T11:55:10.302Z,4.7
2023-01-04T11:56:10.271Z,4.7
2023-01-04T11:57:02.800Z,4.9
2023-01-04T11:58:10.361Z,4.9
2023-01-04T11:59:07.838Z,4.9
2023-01-04T12:00:09.453Z,4.9
2023-01-04T12:01:00.756Z,4.9
2023-01-04T12:02:10.487Z,4.9
2023-01-04T12:03:10.304Z,4.9
2023-01-04T12:04:01.379Z,4.9
2023-01-04T12:05:00.696Z,4.9
2023-01-04T12:06:00.450Z,4.9
2023-01-04T12:07:05.729Z,4.8
2023-01-04T12:08:00.533Z,4.8
2023-01-04T12:09:00.471Z,4.8
2023-01-04T12:10:02.015Z,4.8
2023-01-04T12:11:01.755Z,4.8
2023-01-04T12:12:00.561Z,4.8
2023-01-04T12:13:00.856Z,4.8
2023-01-04T12:14:01.180Z,4.8
2023-01-04T12:15:04.333Z,4.8
2023-01-04T12:16:01.596Z,4.8
2023-01-04T12:17:10.307Z,4.5
2023-01-04T12:18:03.479Z,4.5
2023-01-04T12:19:00.485Z,4.5
2023-01-04T12:20:02.284Z,4.5
2023-01-04T12:21:00.957Z,4.5
2023-01-04T12:22:01.556Z,4.5
2023-01-04T12:23:00.470Z,4.5
2023-01-04T12:24:04.624Z,4.5
2023-01-04T12:25:01.406Z,4.5
2023-01-04T12:26:00.902Z,4.5
2023-01-04T12:27:00.826Z,4.0
2023-01-04T12:28:00.503Z,4.0
2023-01-04T12:29:10.348Z,4.0
2023-01-04T12:30:04.140Z,4.0
2023-01-04T12:31:12.630Z,4.0
2023-01-04T12:32:03.799Z,4.0
2023-01-04T12:33:10.293Z,4.0
2023-01-04T12:34:10.271Z,4.0
2023-01-04T12:35:00.487Z,4.0
2023-01-04T12:36:00.427Z,4.0
2023-01-04T12:37:05.200Z,3.9
2023-01-04T12:38:00.657Z,3.9
2023-01-04T12:39:02.770Z,3.9
2023-01-04T12:40:00.472Z,3.9
2023-01-04T12:41:00.444Z,3.9
2023-01-04T12:42:00.903Z,3.9
2023-01-04T12:43:10.313Z,3.9
2023-01-04T12:44:01.254Z,3.9
2023-01-04T12:45:01.715Z,3.9
2023-01-04T12:46:10.385Z,3.9
2023-01-04T12:47:00.529Z,4.5
2023-01-04T12:48:10.299Z,4.5
2023-01-04T12:49:10.322Z,4.5
2023-01-04T12:50:01.716Z,4.5
2023-01-04T12:51:29.899Z,4.5
2023-01-04T12:52:30.629Z,4.5
2023-01-04T12:53:28.219Z,4.5
2023-01-04T12:54:02.063Z,4.5
2023-01-04T12:55:03.547Z,4.5
2023-01-04T12:56:00.560Z,4.5
2023-01-04T12:57:10.353Z,4.1
2023-01-04T12:58:02.412Z,4.1
2023-01-04T12:59:25.784Z,4.1
2023-01-04T13:00:04.317Z,4.1
2023-01-04T13:01:07.813Z,4.1
2023-01-04T13:02:08.275Z,4.1
2023-01-04T13:03:10.532Z,4.1
2023-01-04T13:04:06.003Z,4.1
2023-01-04T13:05:53.270Z,4.1
2023-01-04T13:06:00.628Z,4.1
2023-01-04T13:07:07.637Z,5.8
2023-01-04T13:08:00.523Z,5.8
2023-01-04T13:09:00.700Z,5.8
2023-01-04T13:10:01.836Z,5.8
2023-01-04T13:11:03.321Z,5.8
2023-01-04T13:12:01.459Z,5.8
2023-01-04T13:13:00.413Z,5.8
2023-01-04T13:14:07.195Z,5.8
2023-01-04T13:15:04.645Z,5.8
2023-01-04T13:16:12.351Z,5.8
2023-01-04T13:17:00.460Z,3.3
2023-01-04T13:18:00.603Z,3.3
2023-01-04T13:19:03.224Z,3.3
2023-01-04T13:20:10.307Z,3.3
2023-01-04T13:21:02.211Z,3.3
2023-01-04T13:23:00.586Z,3.3
2023-01-04T13:24:02.745Z,3.3
2023-01-04T13:25:00.714Z,3.3
2023-01-04T13:26:10.302Z,3.3
2023-01-04T13:27:04.348Z,3.3
2023-01-04T13:28:01.524Z,3.3
2023-01-04T13:29:07.837Z,3.3
2023-01-04T13:30:00.431Z,3.3
2023-01-04T13:31:00.799Z,3.3
2023-01-04T13:33:26.392Z,3.3
2023-01-04T13:34:00.457Z,3.3
2023-01-04T13:35:03.669Z,3.3
2023-01-04T13:36:07.325Z,3.3
2023-01-04T13:37:04.714Z,5.5
2023-01-04T13:38:00.585Z,5.5
2023-01-04T13:39:00.446Z,5.5
2023-01-04T13:40:10.300Z,5.5
2023-01-04T13:41:00.571Z,5.5
2023-01-04T13:42:01.565Z,5.5
2023-01-04T13:43:03.826Z,5.5
2023-01-04T13:44:03.786Z,5.5
2023-01-04T13:45:19.485Z,5.5
2023-01-04T13:46:07.764Z,5.5
2023-01-04T13:47:00.571Z,4.8
2023-01-04T13:48:02.780Z,4.8
2023-01-04T13:49:01.113Z,4.8
2023-01-04T13:50:00.819Z,4.8